SUMU/MVD METAR and TAF weather

Enter ICAO airport designator
Station Type Date Time Source
SUMU METAR 2019/04/22 18:00 UTC NOAA

SUMU 221800Z 16005KT 9999 BKN023 BKN200 18/08 Q1020 NOSIG


Station Type Date Time Source
SUMU Decoded METAR 2019/04/22 18:00 UTC NOAA

Carrasco, Uruguay (SUMU) 34-50S 056-00W 32M
Apr 22, 2019 - 02:00 PM EDT / 2019.04.22 1800 UTC
Wind: from the SSE (160 degrees) at 6 MPH (5 KT):0
Visibility: greater than 7 mile(s):0
Sky conditions: mostly cloudy
Temperature: 64 F (18 C)
Dew Point: 46 F (8 C)
Relative Humidity: 51%
Pressure (altimeter): 30.12 in. Hg (1020 hPa)
ob: SUMU 221800Z 16005KT 9999 BKN023 BKN200 18/08 Q1020 NOSIG
cycle: 18

Station Type Date Time Source
SUMU TAF 2019/04/22 18:39 UTC NOAA

TAF TAF SUMU 221730Z 2218/2318 16008 9999 BKN023 BKN200 TX19/2318Z TN10/2310Z
BECMG 2300/2302 09010KT

Example: see airport list